sensor_id;sensor_type;location;lat;lon;timestamp;temperature;humidity
9305;DHT22;4690;52.422;13.486;2022-08-11T00:03:58;19.30;99.90
9305;DHT22;4690;52.422;13.486;2022-08-11T00:06:35;19.20;99.90
9305;DHT22;4690;52.422;13.486;2022-08-11T00:09:06;19.20;99.90
9305;DHT22;4690;52.422;13.486;2022-08-11T00:11:54;19.10;99.90
9305;DHT22;4690;52.422;13.486;2022-08-11T00:14:26;19.10;99.90
9305;DHT22;4690;52.422;13.486;2022-08-11T00:17:00;19.00;99.90
9305;DHT22;4690;52.422;13.486;2022-08-11T00:19:32;19.00;99.90
9305;DHT22;4690;52.422;13.486;2022-08-11T00:22:00;19.00;99.90
9305;DHT22;4690;52.422;13.486;2022-08-11T00:24:37;18.90;99.90
9305;DHT22;4690;52.422;13.486;2022-08-11T00:27:05;18.90;99.90
9305;DHT22;4690;52.422;13.486;2022-08-11T00:29:32;18.80;99.90
9305;DHT22;4690;52.422;13.486;2022-08-11T00:32:02;18.80;99.90
9305;DHT22;4690;52.422;13.486;2022-08-11T00:34:33;18.80;99.90
9305;DHT22;4690;52.422;13.486;2022-08-11T00:37:17;18.80;99.90
9305;DHT22;4690;52.422;13.486;2022-08-11T00:39:49;18.70;99.90
9305;DHT22;4690;52.422;13.486;2022-08-11T01:18:11;18.20;99.90
9305;DHT22;4690;52.422;13.486;2022-08-11T01:21:08;18.10;99.90
9305;DHT22;4690;52.422;13.486;2022-08-11T01:46:20;17.70;99.90
9305;DHT22;4690;52.422;13.486;2022-08-11T01:52:22;17.70;99.90
9305;DHT22;4690;52.422;13.486;2022-08-11T01:55:18;17.70;99.90
9305;DHT22;4690;52.422;13.486;2022-08-11T01:58:12;17.60;99.90
9305;DHT22;4690;52.422;13.486;2022-08-11T02:04:14;17.60;99.90
9305;DHT22;4690;52.422;13.486;2022-08-11T02:22:50;17.30;99.90
9305;DHT22;4690;52.422;13.486;2022-08-11T02:26:08;17.30;99.90
9305;DHT22;4690;52.422;13.486;2022-08-11T02:48:00;17.00;99.90
9305;DHT22;4690;52.422;13.486;2022-08-11T02:53:53;16.90;99.90
9305;DHT22;4690;52.422;13.486;2022-08-11T02:59:32;16.80;99.90
9305;DHT22;4690;52.422;13.486;2022-08-11T03:02:39;16.80;99.90
9305;DHT22;4690;52.422;13.486;2022-08-11T03:05:35;16.70;99.90
9305;DHT22;4690;52.422;13.486;2022-08-11T03:15:40;16.60;99.90
9305;DHT22;4690;52.422;13.486;2022-08-11T03:18:48;16.60;99.90
9305;DHT22;4690;52.422;13.486;2022-08-11T03:22:18;16.60;99.90
9305;DHT22;4690;52.422;13.486;2022-08-11T03:24:58;16.60;99.90
9305;DHT22;4690;52.422;13.486;2022-08-11T03:30:41;16.50;99.90
9305;DHT22;4690;52.422;13.486;2022-08-11T03:33:17;16.50;99.90
9305;DHT22;4690;52.422;13.486;2022-08-11T03:45:43;16.40;99.90
9305;DHT22;4690;52.422;13.486;2022-08-11T03:48:53;16.30;99.90
9305;DHT22;4690;52.422;13.486;2022-08-11T03:51:31;16.30;99.90
9305;DHT22;4690;52.422;13.486;2022-08-11T03:58:05;16.30;99.90
9305;DHT22;4690;52.422;13.486;2022-08-11T04:04:31;16.30;99.90
9305;DHT22;4690;52.422;13.486;2022-08-11T04:19:20;16.20;99.90
9305;DHT22;4690;52.422;13.486;2022-08-11T04:50:29;16.50;99.90
9305;DHT22;4690;52.422;13.486;2022-08-11T04:53:51;16.50;99.90
9305;DHT22;4690;52.422;13.486;2022-08-11T04:56:45;16.50;99.90
9305;DHT22;4690;52.422;13.486;2022-08-11T04:59:51;16.60;99.90
9305;DHT22;4690;52.422;13.486;2022-08-11T05:14:50;17.10;99.90
9305;DHT22;4690;52.422;13.486;2022-08-11T05:18:01;17.20;99.90
9305;DHT22;4690;52.422;13.486;2022-08-11T05:20:54;17.40;99.90
9305;DHT22;4690;52.422;13.486;2022-08-11T05:23:50;17.50;99.90
9305;DHT22;4690;52.422;13.486;2022-08-11T05:26:48;17.70;99.90
9305;DHT22;4690;52.422;13.486;2022-08-11T05:30:04;17.90;99.90
9305;DHT22;4690;52.422;13.486;2022-08-11T05:33:14;18.00;99.90
9305;DHT22;4690;52.422;13.486;2022-08-11T05:39:14;18.30;99.90
9305;DHT22;4690;52.422;13.486;2022-08-11T05:42:06;18.40;99.90
9305;DHT22;4690;52.422;13.486;2022-08-11T05:44:55;18.50;99.90
9305;DHT22;4690;52.422;13.486;2022-08-11T05:47:48;18.60;99.90
9305;DHT22;4690;52.422;13.486;2022-08-11T05:50:33;18.70;99.90
9305;DHT22;4690;52.422;13.486;2022-08-11T05:53:18;19.00;99.90
9305;DHT22;4690;52.422;13.486;2022-08-11T05:56:05;19.20;99.90
9305;DHT22;4690;52.422;13.486;2022-08-11T05:58:52;19.40;99.90
9305;DHT22;4690;52.422;13.486;2022-08-11T06:01:22;19.60;99.90
9305;DHT22;4690;52.422;13.486;2022-08-11T06:04:05;19.70;99.90
9305;DHT22;4690;52.422;13.486;2022-08-11T06:11:55;20.00;99.90
9305;DHT22;4690;52.422;13.486;2022-08-11T06:14:24;20.30;99.90
9305;DHT22;4690;52.422;13.486;2022-08-11T06:16:55;20.50;99.90
9305;DHT22;4690;52.422;13.486;2022-08-11T06:19:40;20.60;99.90
9305;DHT22;4690;52.422;13.486;2022-08-11T06:22:09;20.80;99.90
9305;DHT22;4690;52.422;13.486;2022-08-11T06:24:39;21.00;99.90
9305;DHT22;4690;52.422;13.486;2022-08-11T06:27:07;21.30;99.90
9305;DHT22;4690;52.422;13.486;2022-08-11T06:29:44;21.50;99.90
9305;DHT22;4690;52.422;13.486;2022-08-11T06:32:13;21.70;99.90
9305;DHT22;4690;52.422;13.486;2022-08-11T06:34:54;21.90;99.90
9305;DHT22;4690;52.422;13.486;2022-08-11T06:40:07;22.20;99.90
9305;DHT22;4690;52.422;13.486;2022-08-11T06:45:47;22.50;99.90
9305;DHT22;4690;52.422;13.486;2022-08-11T06:48:21;22.70;99.90
9305;DHT22;4690;52.422;13.486;2022-08-11T06:51:01;22.80;99.90
9305;DHT22;4690;52.422;13.486;2022-08-11T06:53:45;22.70;99.90
9305;DHT22;4690;52.422;13.486;2022-08-11T06:56:20;22.70;99.90
9305;DHT22;4690;52.422;13.486;2022-08-11T06:59:09;22.70;99.90
9305;DHT22;4690;52.422;13.486;2022-08-11T07:02:19;22.90;99.90
9305;DHT22;4690;52.422;13.486;2022-08-11T07:05:00;23.10;99.90
9305;DHT22;4690;52.422;13.486;2022-08-11T07:14:32;23.70;99.90
9305;DHT22;4690;52.422;13.486;2022-08-11T07:17:21;24.00;99.90
9305;DHT22;4690;52.422;13.486;2022-08-11T07:19:57;24.10;99.90
9305;DHT22;4690;52.422;13.486;2022-08-11T07:22:48;24.20;99.90
9305;DHT22;4690;52.422;13.486;2022-08-11T07:25:42;24.40;99.90
9305;DHT22;4690;52.422;13.486;2022-08-11T07:28:30;24.70;99.90
9305;DHT22;4690;52.422;13.486;2022-08-11T07:31:33;24.80;99.90
9305;DHT22;4690;52.422;13.486;2022-08-11T07:37:18;25.00;99.90
9305;DHT22;4690;52.422;13.486;2022-08-11T07:39:46;25.10;99.90
9305;DHT22;4690;52.422;13.486;2022-08-11T07:42:17;25.20;99.90
9305;DHT22;4690;52.422;13.486;2022-08-11T07:44:47;25.40;99.90
9305;DHT22;4690;52.422;13.486;2022-08-11T07:47:35;25.50;99.90
9305;DHT22;4690;52.422;13.486;2022-08-11T07:50:20;25.60;99.90
9305;DHT22;4690;52.422;13.486;2022-08-11T07:53:05;25.80;99.90
9305;DHT22;4690;52.422;13.486;2022-08-11T07:55:32;25.70;99.90
9305;DHT22;4690;52.422;13.486;2022-08-11T07:58:00;25.90;99.90
9305;DHT22;4690;52.422;13.486;2022-08-11T08:00:53;25.70;99.90
9305;DHT22;4690;52.422;13.486;2022-08-11T08:03:40;26.00;99.90
9305;DHT22;4690;52.422;13.486;2022-08-11T08:06:28;26.20;99.90
9305;DHT22;4690;52.422;13.486;2022-08-11T08:09:17;26.30;99.90
9305;DHT22;4690;52.422;13.486;2022-08-11T08:12:03;26.40;99.90
9305;DHT22;4690;52.422;13.486;2022-08-11T08:14:55;26.50;99.90
9305;DHT22;4690;52.422;13.486;2022-08-11T08:17:42;26.60;99.90
9305;DHT22;4690;52.422;13.486;2022-08-11T08:20:17;26.80;99.90
9305;DHT22;4690;52.422;13.486;2022-08-11T08:22:54;26.90;99.90
9305;DHT22;4690;52.422;13.486;2022-08-11T08:25:27;27.00;99.90
9305;DHT22;4690;52.422;13.486;2022-08-11T08:27:56;27.30;99.90
9305;DHT22;4690;52.422;13.486;2022-08-11T08:30:25;27.10;99.90
9305;DHT22;4690;52.422;13.486;2022-08-11T08:33:24;26.80;99.90
9305;DHT22;4690;52.422;13.486;2022-08-11T08:36:02;27.00;99.90
9305;DHT22;4690;52.422;13.486;2022-08-11T08:38:51;27.00;99.90
9305;DHT22;4690;52.422;13.486;2022-08-11T08:41:28;27.20;99.90
9305;DHT22;4690;52.422;13.486;2022-08-11T08:44:03;27.50;99.90
9305;DHT22;4690;52.422;13.486;2022-08-11T08:46:39;27.90;99.90
9305;DHT22;4690;52.422;13.486;2022-08-11T08:49:09;27.90;99.90
9305;DHT22;4690;52.422;13.486;2022-08-11T08:51:41;28.10;99.90
9305;DHT22;4690;52.422;13.486;2022-08-11T08:54:16;28.40;99.90
9305;DHT22;4690;52.422;13.486;2022-08-11T08:56:45;28.40;99.90
9305;DHT22;4690;52.422;13.486;2022-08-11T08:59:21;28.20;99.90
9305;DHT22;4690;52.422;13.486;2022-08-11T09:02:02;28.60;99.90
9305;DHT22;4690;52.422;13.486;2022-08-11T09:04:30;28.70;99.90
9305;DHT22;4690;52.422;13.486;2022-08-11T09:06:59;28.60;99.90
9305;DHT22;4690;52.422;13.486;2022-08-11T09:09:33;28.60;99.90
9305;DHT22;4690;52.422;13.486;2022-08-11T09:12:01;28.90;99.90
9305;DHT22;4690;52.422;13.486;2022-08-11T09:14:35;29.00;99.90
9305;DHT22;4690;52.422;13.486;2022-08-11T09:17:22;29.10;99.90
9305;DHT22;4690;52.422;13.486;2022-08-11T09:19:55;28.90;99.90
9305;DHT22;4690;52.422;13.486;2022-08-11T09:22:31;29.00;99.90
9305;DHT22;4690;52.422;13.486;2022-08-11T09:25:18;29.10;99.90
9305;DHT22;4690;52.422;13.486;2022-08-11T09:28:04;29.10;99.90
9305;DHT22;4690;52.422;13.486;2022-08-11T09:30:31;29.30;99.90
9305;DHT22;4690;52.422;13.486;2022-08-11T09:33:00;29.10;99.90
9305;DHT22;4690;52.422;13.486;2022-08-11T09:35:32;29.20;99.90
9305;DHT22;4690;52.422;13.486;2022-08-11T09:38:01;29.20;99.90
9305;DHT22;4690;52.422;13.486;2022-08-11T09:40:48;29.30;99.90
9305;DHT22;4690;52.422;13.486;2022-08-11T09:43:17;29.10;99.90
9305;DHT22;4690;52.422;13.486;2022-08-11T09:46:04;29.50;99.90
9305;DHT22;4690;52.422;13.486;2022-08-11T09:48:36;29.40;99.90
9305;DHT22;4690;52.422;13.486;2022-08-11T09:51:07;29.40;99.90
9305;DHT22;4690;52.422;13.486;2022-08-11T09:53:40;29.70;99.90
9305;DHT22;4690;52.422;13.486;2022-08-11T09:56:13;29.70;99.90
9305;DHT22;4690;52.422;13.486;2022-08-11T09:59:01;30.00;99.90
9305;DHT22;4690;52.422;13.486;2022-08-11T10:01:39;29.80;99.90
9305;DHT22;4690;52.422;13.486;2022-08-11T10:04:16;29.90;99.90
9305;DHT22;4690;52.422;13.486;2022-08-11T10:06:52;30.00;99.90
9305;DHT22;4690;52.422;13.486;2022-08-11T10:09:58;30.00;99.90
9305;DHT22;4690;52.422;13.486;2022-08-11T10:12:35;29.80;99.90
9305;DHT22;4690;52.422;13.486;2022-08-11T10:15:11;29.50;99.90
9305;DHT22;4690;52.422;13.486;2022-08-11T10:18:06;29.60;99.90
9305;DHT22;4690;52.422;13.486;2022-08-11T10:20:57;29.90;99.90
9305;DHT22;4690;52.422;13.486;2022-08-11T10:23:29;30.30;99.90
9305;DHT22;4690;52.422;13.486;2022-08-11T10:26:18;30.40;99.90
9305;DHT22;4690;52.422;13.486;2022-08-11T10:29:05;30.50;99.90
9305;DHT22;4690;52.422;13.486;2022-08-11T10:31:55;30.40;99.90
9305;DHT22;4690;52.422;13.486;2022-08-11T10:34:41;30.50;99.90
9305;DHT22;4690;52.422;13.486;2022-08-11T10:37:28;30.30;99.90
9305;DHT22;4690;52.422;13.486;2022-08-11T10:40:03;30.00;99.90
9305;DHT22;4690;52.422;13.486;2022-08-11T10:42:31;29.90;99.90
9305;DHT22;4690;52.422;13.486;2022-08-11T10:45:17;29.90;99.90
9305;DHT22;4690;52.422;13.486;2022-08-11T10:48:04;30.10;99.90
9305;DHT22;4690;52.422;13.486;2022-08-11T10:50:32;30.40;99.90
9305;DHT22;4690;52.422;13.486;2022-08-11T10:53:17;30.40;99.90
9305;DHT22;4690;52.422;13.486;2022-08-11T10:56:04;30.40;99.90
9305;DHT22;4690;52.422;13.486;2022-08-11T10:58:50;29.80;99.90
9305;DHT22;4690;52.422;13.486;2022-08-11T11:01:21;29.70;99.90
9305;DHT22;4690;52.422;13.486;2022-08-11T11:03:51;29.80;99.90
9305;DHT22;4690;52.422;13.486;2022-08-11T11:12:09;30.00;99.90
9305;DHT22;4690;52.422;13.486;2022-08-11T11:15:04;30.10;99.90
9305;DHT22;4690;52.422;13.486;2022-08-11T11:18:00;30.00;99.30
9305;DHT22;4690;52.422;13.486;2022-08-11T11:20:46;30.00;98.90
9305;DHT22;4690;52.422;13.486;2022-08-11T11:26:55;30.30;99.90
9305;DHT22;4690;52.422;13.486;2022-08-11T11:33:52;30.30;99.90
9305;DHT22;4690;52.422;13.486;2022-08-11T11:39:21;30.50;99.10
9305;DHT22;4690;52.422;13.486;2022-08-11T11:41:52;30.20;99.20
9305;DHT22;4690;52.422;13.486;2022-08-11T11:44:21;30.10;98.50
9305;DHT22;4690;52.422;13.486;2022-08-11T11:46:48;30.10;98.20
9305;DHT22;4690;52.422;13.486;2022-08-11T11:49:21;29.90;99.90
9305;DHT22;4690;52.422;13.486;2022-08-11T11:51:50;30.10;99.90
9305;DHT22;4690;52.422;13.486;2022-08-11T11:54:23;30.20;98.90
9305;DHT22;4690;52.422;13.486;2022-08-11T11:56:55;30.10;99.20
9305;DHT22;4690;52.422;13.486;2022-08-11T11:59:24;29.70;98.40
9305;DHT22;4690;52.422;13.486;2022-08-11T12:02:13;29.60;99.20
9305;DHT22;4690;52.422;13.486;2022-08-11T12:04:41;29.70;99.50
9305;DHT22;4690;52.422;13.486;2022-08-11T12:07:10;30.10;99.90
9305;DHT22;4690;52.422;13.486;2022-08-11T12:09:56;30.20;99.90
9305;DHT22;4690;52.422;13.486;2022-08-11T12:12:24;30.10;99.90
9305;DHT22;4690;52.422;13.486;2022-08-11T12:15:09;30.40;99.90
9305;DHT22;4690;52.422;13.486;2022-08-11T12:17:36;30.30;99.90
9305;DHT22;4690;52.422;13.486;2022-08-11T12:20:04;30.50;99.80
9305;DHT22;4690;52.422;13.486;2022-08-11T12:22:31;30.20;97.00
9305;DHT22;4690;52.422;13.486;2022-08-11T12:25:17;30.00;99.80
9305;DHT22;4690;52.422;13.486;2022-08-11T12:28:02;30.20;98.00
9305;DHT22;4690;52.422;13.486;2022-08-11T12:30:28;30.30;97.60
9305;DHT22;4690;52.422;13.486;2022-08-11T12:32:54;30.20;97.50
9305;DHT22;4690;52.422;13.486;2022-08-11T12:35:21;30.40;99.90
9305;DHT22;4690;52.422;13.486;2022-08-11T12:37:50;30.60;98.10
9305;DHT22;4690;52.422;13.486;2022-08-11T12:40:25;30.60;96.40
9305;DHT22;4690;52.422;13.486;2022-08-11T12:43:21;30.10;97.00
9305;DHT22;4690;52.422;13.486;2022-08-11T12:46:13;30.20;96.50
9305;DHT22;4690;52.422;13.486;2022-08-11T12:48:47;30.40;97.00
9305;DHT22;4690;52.422;13.486;2022-08-11T12:51:41;30.50;95.80
9305;DHT22;4690;52.422;13.486;2022-08-11T12:57:12;30.50;97.10
9305;DHT22;4690;52.422;13.486;2022-08-11T13:00:01;30.40;95.80
9305;DHT22;4690;52.422;13.486;2022-08-11T13:02:47;30.80;95.90
9305;DHT22;4690;52.422;13.486;2022-08-11T13:05:32;30.60;94.80
9305;DHT22;4690;52.422;13.486;2022-08-11T13:08:00;30.60;94.60
9305;DHT22;4690;52.422;13.486;2022-08-11T13:10:29;30.70;95.00
9305;DHT22;4690;52.422;13.486;2022-08-11T13:13:16;30.60;94.90
9305;DHT22;4690;52.422;13.486;2022-08-11T13:15:46;30.70;94.90
9305;DHT22;4690;52.422;13.486;2022-08-11T13:18:19;30.60;94.70
9305;DHT22;4690;52.422;13.486;2022-08-11T13:20:57;30.50;94.60
9305;DHT22;4690;52.422;13.486;2022-08-11T13:23:25;30.50;94.30
9305;DHT22;4690;52.422;13.486;2022-08-11T13:25:54;30.50;94.60
9305;DHT22;4690;52.422;13.486;2022-08-11T13:28:22;30.70;94.90
9305;DHT22;4690;52.422;13.486;2022-08-11T13:30:49;30.90;98.40
9305;DHT22;4690;52.422;13.486;2022-08-11T13:33:45;31.00;94.10
9305;DHT22;4690;52.422;13.486;2022-08-11T13:36:18;30.90;94.50
9305;DHT22;4690;52.422;13.486;2022-08-11T13:38:47;30.50;94.20
9305;DHT22;4690;52.422;13.486;2022-08-11T13:41:17;30.70;93.60
9305;DHT22;4690;52.422;13.486;2022-08-11T13:44:02;30.70;93.70
9305;DHT22;4690;52.422;13.486;2022-08-11T13:46:41;30.80;95.20
9305;DHT22;4690;52.422;13.486;2022-08-11T13:49:09;30.80;92.60
9305;DHT22;4690;52.422;13.486;2022-08-11T13:51:36;30.70;91.40
9305;DHT22;4690;52.422;13.486;2022-08-11T13:54:06;30.60;91.90
9305;DHT22;4690;52.422;13.486;2022-08-11T13:56:37;30.50;92.00
9305;DHT22;4690;52.422;13.486;2022-08-11T13:59:07;30.70;96.00
9305;DHT22;4690;52.422;13.486;2022-08-11T14:01:40;31.00;95.40
9305;DHT22;4690;52.422;13.486;2022-08-11T14:04:31;30.80;91.50
9305;DHT22;4690;52.422;13.486;2022-08-11T14:07:08;30.70;91.80
9305;DHT22;4690;52.422;13.486;2022-08-11T14:09:38;30.80;91.40
9305;DHT22;4690;52.422;13.486;2022-08-11T14:12:12;30.60;90.40
9305;DHT22;4690;52.422;13.486;2022-08-11T14:15:05;30.50;92.30
9305;DHT22;4690;52.422;13.486;2022-08-11T14:17:39;30.40;90.80
9305;DHT22;4690;52.422;13.486;2022-08-11T14:20:09;30.60;91.90
9305;DHT22;4690;52.422;13.486;2022-08-11T14:22:41;30.50;91.00
9305;DHT22;4690;52.422;13.486;2022-08-11T14:25:08;30.60;91.80
9305;DHT22;4690;52.422;13.486;2022-08-11T14:27:36;30.50;90.40
9305;DHT22;4690;52.422;13.486;2022-08-11T14:30:03;30.40;90.80
9305;DHT22;4690;52.422;13.486;2022-08-11T14:32:30;30.30;89.20
9305;DHT22;4690;52.422;13.486;2022-08-11T14:34:57;30.30;90.50
9305;DHT22;4690;52.422;13.486;2022-08-11T14:37:25;30.10;90.90
9305;DHT22;4690;52.422;13.486;2022-08-11T14:39:56;30.30;95.10
9305;DHT22;4690;52.422;13.486;2022-08-11T14:42:24;30.50;93.40
9305;DHT22;4690;52.422;13.486;2022-08-11T14:45:11;30.70;91.70
9305;DHT22;4690;52.422;13.486;2022-08-11T14:48:00;30.40;90.20
9305;DHT22;4690;52.422;13.486;2022-08-11T14:50:30;30.30;90.60
9305;DHT22;4690;52.422;13.486;2022-08-11T14:53:04;30.40;90.40
9305;DHT22;4690;52.422;13.486;2022-08-11T14:55:37;30.10;90.40
9305;DHT22;4690;52.422;13.486;2022-08-11T14:58:25;30.10;91.70
9305;DHT22;4690;52.422;13.486;2022-08-11T15:00:56;30.40;95.20
9305;DHT22;4690;52.422;13.486;2022-08-11T15:03:25;30.50;90.70
9305;DHT22;4690;52.422;13.486;2022-08-11T15:05:54;30.30;92.20
9305;DHT22;4690;52.422;13.486;2022-08-11T15:08:23;30.20;90.10
9305;DHT22;4690;52.422;13.486;2022-08-11T15:11:18;30.20;90.10
9305;DHT22;4690;52.422;13.486;2022-08-11T15:14:07;30.30;89.70
9305;DHT22;4690;52.422;13.486;2022-08-11T15:16:36;30.30;90.10
9305;DHT22;4690;52.422;13.486;2022-08-11T15:19:24;30.20;91.00
9305;DHT22;4690;52.422;13.486;2022-08-11T15:21:53;30.00;88.70
9305;DHT22;4690;52.422;13.486;2022-08-11T15:24:37;30.10;88.90
9305;DHT22;4690;52.422;13.486;2022-08-11T15:27:13;30.00;88.50
9305;DHT22;4690;52.422;13.486;2022-08-11T15:30:06;30.00;89.10
9305;DHT22;4690;52.422;13.486;2022-08-11T15:32:53;30.00;88.80
9305;DHT22;4690;52.422;13.486;2022-08-11T15:35:40;30.00;86.80
9305;DHT22;4690;52.422;13.486;2022-08-11T15:38:26;29.80;86.90
9305;DHT22;4690;52.422;13.486;2022-08-11T15:41:01;29.60;86.70
9305;DHT22;4690;52.422;13.486;2022-08-11T15:43:52;29.60;88.10
9305;DHT22;4690;52.422;13.486;2022-08-11T15:46:40;29.50;87.80
9305;DHT22;4690;52.422;13.486;2022-08-11T15:49:36;29.50;85.90
9305;DHT22;4690;52.422;13.486;2022-08-11T15:52:20;29.40;86.00
9305;DHT22;4690;52.422;13.486;2022-08-11T15:54:50;29.30;85.00
9305;DHT22;4690;52.422;13.486;2022-08-11T15:57:17;29.20;85.10
9305;DHT22;4690;52.422;13.486;2022-08-11T16:00:05;29.20;84.90
9305;DHT22;4690;52.422;13.486;2022-08-11T16:02:51;29.20;84.90
9305;DHT22;4690;52.422;13.486;2022-08-11T16:05:20;29.20;84.30
9305;DHT22;4690;52.422;13.486;2022-08-11T16:07:48;29.20;84.90
9305;DHT22;4690;52.422;13.486;2022-08-11T16:10:17;29.10;84.00
9305;DHT22;4690;52.422;13.486;2022-08-11T16:12:58;29.00;84.30
9305;DHT22;4690;52.422;13.486;2022-08-11T16:15:36;29.10;83.70
9305;DHT22;4690;52.422;13.486;2022-08-11T16:18:32;29.00;83.40
9305;DHT22;4690;52.422;13.486;2022-08-11T16:21:19;28.90;82.50
9305;DHT22;4690;52.422;13.486;2022-08-11T16:23:49;28.90;83.60
9305;DHT22;4690;52.422;13.486;2022-08-11T16:26:19;28.80;83.10
9305;DHT22;4690;52.422;13.486;2022-08-11T16:28:57;28.80;83.30
9305;DHT22;4690;52.422;13.486;2022-08-11T16:31:26;28.90;82.80
9305;DHT22;4690;52.422;13.486;2022-08-11T16:33:56;28.80;82.20
9305;DHT22;4690;52.422;13.486;2022-08-11T16:36:24;28.80;81.10
9305;DHT22;4690;52.422;13.486;2022-08-11T16:39:20;28.80;79.90
9305;DHT22;4690;52.422;13.486;2022-08-11T16:41:47;28.70;80.10
9305;DHT22;4690;52.422;13.486;2022-08-11T16:44:33;28.70;80.30
9305;DHT22;4690;52.422;13.486;2022-08-11T16:47:21;28.70;87.00
9305;DHT22;4690;52.422;13.486;2022-08-11T16:49:50;28.60;82.80
9305;DHT22;4690;52.422;13.486;2022-08-11T16:52:20;28.50;83.70
9305;DHT22;4690;52.422;13.486;2022-08-11T16:54:47;28.50;81.80
9305;DHT22;4690;52.422;13.486;2022-08-11T16:57:22;28.60;81.60
9305;DHT22;4690;52.422;13.486;2022-08-11T17:00:12;28.50;81.30
9305;DHT22;4690;52.422;13.486;2022-08-11T17:02:52;28.50;81.70
9305;DHT22;4690;52.422;13.486;2022-08-11T17:05:45;28.40;81.40
9305;DHT22;4690;52.422;13.486;2022-08-11T17:08:45;28.40;83.10
9305;DHT22;4690;52.422;13.486;2022-08-11T17:11:55;28.30;83.20
9305;DHT22;4690;52.422;13.486;2022-08-11T17:14:47;28.30;84.50
9305;DHT22;4690;52.422;13.486;2022-08-11T17:17:22;28.20;83.50
9305;DHT22;4690;52.422;13.486;2022-08-11T17:19:55;28.20;83.50
9305;DHT22;4690;52.422;13.486;2022-08-11T17:22:25;28.10;85.60
9305;DHT22;4690;52.422;13.486;2022-08-11T17:25:32;28.10;85.50
9305;DHT22;4690;52.422;13.486;2022-08-11T17:27:58;28.00;83.40
9305;DHT22;4690;52.422;13.486;2022-08-11T17:30:26;27.90;85.90
9305;DHT22;4690;52.422;13.486;2022-08-11T17:33:12;27.90;84.70
9305;DHT22;4690;52.422;13.486;2022-08-11T17:35:59;27.80;83.90
9305;DHT22;4690;52.422;13.486;2022-08-11T17:38:26;27.80;89.10
9305;DHT22;4690;52.422;13.486;2022-08-11T17:40:56;27.70;86.10
9305;DHT22;4690;52.422;13.486;2022-08-11T17:43:45;27.60;86.00
9305;DHT22;4690;52.422;13.486;2022-08-11T17:46:31;27.60;84.80
9305;DHT22;4690;52.422;13.486;2022-08-11T17:49:19;27.50;89.10
9305;DHT22;4690;52.422;13.486;2022-08-11T17:51:47;27.50;85.20
9305;DHT22;4690;52.422;13.486;2022-08-11T17:54:36;27.50;86.80
9305;DHT22;4690;52.422;13.486;2022-08-11T17:57:24;27.40;87.90
9305;DHT22;4690;52.422;13.486;2022-08-11T18:00:11;27.40;86.30
9305;DHT22;4690;52.422;13.486;2022-08-11T18:02:43;27.30;87.20
9305;DHT22;4690;52.422;13.486;2022-08-11T18:05:41;27.30;86.70
9305;DHT22;4690;52.422;13.486;2022-08-11T18:08:11;27.20;88.50
9305;DHT22;4690;52.422;13.486;2022-08-11T18:10:57;27.20;90.00
9305;DHT22;4690;52.422;13.486;2022-08-11T18:13:44;27.10;92.10
9305;DHT22;4690;52.422;13.486;2022-08-11T18:16:32;26.90;91.10
9305;DHT22;4690;52.422;13.486;2022-08-11T18:19:16;26.80;88.70
9305;DHT22;4690;52.422;13.486;2022-08-11T18:22:12;26.80;88.70
9305;DHT22;4690;52.422;13.486;2022-08-11T18:25:08;26.80;90.10
9305;DHT22;4690;52.422;13.486;2022-08-11T18:27:55;26.80;88.80
9305;DHT22;4690;52.422;13.486;2022-08-11T18:30:42;26.60;90.30
9305;DHT22;4690;52.422;13.486;2022-08-11T18:33:35;26.40;93.90
9305;DHT22;4690;52.422;13.486;2022-08-11T18:36:26;26.20;90.20
9305;DHT22;4690;52.422;13.486;2022-08-11T18:39:14;26.20;90.90
9305;DHT22;4690;52.422;13.486;2022-08-11T18:42:05;26.00;92.70
9305;DHT22;4690;52.422;13.486;2022-08-11T18:44:54;25.90;91.50
9305;DHT22;4690;52.422;13.486;2022-08-11T18:47:41;25.80;94.80
9305;DHT22;4690;52.422;13.486;2022-08-11T18:50:27;25.60;95.70
9305;DHT22;4690;52.422;13.486;2022-08-11T18:53:12;25.40;96.70
9305;DHT22;4690;52.422;13.486;2022-08-11T18:55:59;25.20;97.10
9305;DHT22;4690;52.422;13.486;2022-08-11T18:58:45;25.10;96.50
9305;DHT22;4690;52.422;13.486;2022-08-11T19:01:35;24.90;97.80
9305;DHT22;4690;52.422;13.486;2022-08-11T19:04:22;24.60;97.70
9305;DHT22;4690;52.422;13.486;2022-08-11T19:07:10;24.60;99.10
9305;DHT22;4690;52.422;13.486;2022-08-11T19:09:56;24.40;97.60
9305;DHT22;4690;52.422;13.486;2022-08-11T19:12:44;24.30;97.80
9305;DHT22;4690;52.422;13.486;2022-08-11T19:15:31;24.30;99.70
9305;DHT22;4690;52.422;13.486;2022-08-11T19:18:20;24.10;96.90
9305;DHT22;4690;52.422;13.486;2022-08-11T19:21:07;24.20;98.10
9305;DHT22;4690;52.422;13.486;2022-08-11T19:23:56;24.10;98.00
9305;DHT22;4690;52.422;13.486;2022-08-11T19:26:44;24.00;96.10
9305;DHT22;4690;52.422;13.486;2022-08-11T19:29:30;24.00;99.80
9305;DHT22;4690;52.422;13.486;2022-08-11T19:32:18;23.80;99.90
9305;DHT22;4690;52.422;13.486;2022-08-11T19:35:04;23.80;99.90
9305;DHT22;4690;52.422;13.486;2022-08-11T19:37:50;23.70;99.90
9305;DHT22;4690;52.422;13.486;2022-08-11T19:40:37;23.60;99.90
9305;DHT22;4690;52.422;13.486;2022-08-11T19:43:23;23.40;99.90
9305;DHT22;4690;52.422;13.486;2022-08-11T19:46:10;23.30;99.90
9305;DHT22;4690;52.422;13.486;2022-08-11T19:48:56;23.20;99.90
9305;DHT22;4690;52.422;13.486;2022-08-11T19:51:43;23.10;99.90
9305;DHT22;4690;52.422;13.486;2022-08-11T19:54:33;23.00;99.90
9305;DHT22;4690;52.422;13.486;2022-08-11T19:57:21;22.90;99.90
9305;DHT22;4690;52.422;13.486;2022-08-11T20:00:15;22.80;99.90
9305;DHT22;4690;52.422;13.486;2022-08-11T20:03:13;22.70;99.90
9305;DHT22;4690;52.422;13.486;2022-08-11T20:06:04;22.60;99.90
9305;DHT22;4690;52.422;13.486;2022-08-11T20:08:57;22.60;99.90
9305;DHT22;4690;52.422;13.486;2022-08-11T20:11:47;22.50;99.90
9305;DHT22;4690;52.422;13.486;2022-08-11T20:14:38;22.40;99.90
9305;DHT22;4690;52.422;13.486;2022-08-11T20:17:28;22.40;99.90
9305;DHT22;4690;52.422;13.486;2022-08-11T20:20:19;22.30;99.90
9305;DHT22;4690;52.422;13.486;2022-08-11T20:23:08;22.30;99.90
9305;DHT22;4690;52.422;13.486;2022-08-11T20:25:57;22.20;99.90
9305;DHT22;4690;52.422;13.486;2022-08-11T20:28:43;22.10;99.90
9305;DHT22;4690;52.422;13.486;2022-08-11T20:31:29;22.10;99.90
9305;DHT22;4690;52.422;13.486;2022-08-11T20:34:16;22.00;99.90
9305;DHT22;4690;52.422;13.486;2022-08-11T20:37:03;21.90;99.90
9305;DHT22;4690;52.422;13.486;2022-08-11T20:39:49;21.90;99.90
9305;DHT22;4690;52.422;13.486;2022-08-11T20:42:35;21.80;99.90
9305;DHT22;4690;52.422;13.486;2022-08-11T20:45:21;21.80;99.90
9305;DHT22;4690;52.422;13.486;2022-08-11T20:48:09;21.80;99.90
9305;DHT22;4690;52.422;13.486;2022-08-11T20:50:55;21.70;99.90
9305;DHT22;4690;52.422;13.486;2022-08-11T20:53:42;21.70;99.90
9305;DHT22;4690;52.422;13.486;2022-08-11T20:56:30;21.70;99.90
9305;DHT22;4690;52.422;13.486;2022-08-11T20:59:20;21.70;99.90
9305;DHT22;4690;52.422;13.486;2022-08-11T21:02:07;21.70;99.90
9305;DHT22;4690;52.422;13.486;2022-08-11T21:04:54;21.70;99.90
9305;DHT22;4690;52.422;13.486;2022-08-11T21:07:44;21.70;99.90